North Ferriby, United Kingdom
Current Conditions -  °F | °C
As of 8:50 AM on Friday 31 Oct 2014 (Local Time) from EGXV Reporting Station
Haze Haze  
Wind Chill: 59°   Ceiling: Unl
Heat Index: 59°   Visibility: 2.6mi
Dew Point: 59°   Wind: 7mph
Humidity: 100%   Direction: 190°S
Pressure: 29.94"   Gusts: NA
Location:  53.72°N, 0.51°W
Report Text: EGXV 310850Z AUTO 19006KT 4300 BR SCT006/// 15/15 Q1014
Loading
Personal Weather Stations






























Interactive Weather Map
Tropical Storm Tracking
New forecast layout! Learn more

10-Day Weather Forecast

Advertisements
Track Severe Weather on mobile